sensor_id;sensor_type;location;lat;lon;timestamp;P1;durP1;ratioP1;P2;durP2;ratioP2
19225;SDS011;9747;48.536;12.522;2022-12-17T00:00:26;25.60;;;15.35;;
19225;SDS011;9747;48.536;12.522;2022-12-17T00:03:11;23.63;;;14.18;;
19225;SDS011;9747;48.536;12.522;2022-12-17T00:05:56;21.17;;;14.32;;
19225;SDS011;9747;48.536;12.522;2022-12-17T00:08:41;18.38;;;13.07;;
19225;SDS011;9747;48.536;12.522;2022-12-17T00:11:27;23.13;;;14.23;;
19225;SDS011;9747;48.536;12.522;2022-12-17T00:14:12;21.58;;;14.02;;
19225;SDS011;9747;48.536;12.522;2022-12-17T00:16:57;19.13;;;13.13;;
19225;SDS011;9747;48.536;12.522;2022-12-17T00:19:42;21.55;;;13.60;;
19225;SDS011;9747;48.536;12.522;2022-12-17T00:22:27;20.40;;;13.40;;
19225;SDS011;9747;48.536;12.522;2022-12-17T00:25:11;18.50;;;12.95;;
19225;SDS011;9747;48.536;12.522;2022-12-17T00:27:58;21.23;;;12.98;;
19225;SDS011;9747;48.536;12.522;2022-12-17T00:30:49;18.10;;;12.57;;
19225;SDS011;9747;48.536;12.522;2022-12-17T00:33:34;17.85;;;12.68;;
19225;SDS011;9747;48.536;12.522;2022-12-17T00:36:19;16.55;;;12.07;;
19225;SDS011;9747;48.536;12.522;2022-12-17T00:39:04;16.52;;;11.68;;
19225;SDS011;9747;48.536;12.522;2022-12-17T00:41:49;18.58;;;12.43;;
19225;SDS011;9747;48.536;12.522;2022-12-17T00:44:46;16.80;;;11.48;;
19225;SDS011;9747;48.536;12.522;2022-12-17T00:47:31;16.67;;;10.85;;
19225;SDS011;9747;48.536;12.522;2022-12-17T00:50:16;17.60;;;12.05;;
19225;SDS011;9747;48.536;12.522;2022-12-17T00:53:01;15.48;;;11.32;;
19225;SDS011;9747;48.536;12.522;2022-12-17T00:55:46;17.42;;;11.52;;
19225;SDS011;9747;48.536;12.522;2022-12-17T00:58:31;14.57;;;11.00;;
19225;SDS011;9747;48.536;12.522;2022-12-17T01:01:17;14.68;;;10.73;;
19225;SDS011;9747;48.536;12.522;2022-12-17T01:04:02;14.20;;;10.88;;
19225;SDS011;9747;48.536;12.522;2022-12-17T01:06:48;15.80;;;10.73;;
19225;SDS011;9747;48.536;12.522;2022-12-17T01:09:33;14.43;;;10.35;;
19225;SDS011;9747;48.536;12.522;2022-12-17T01:12:18;14.15;;;10.52;;
19225;SDS011;9747;48.536;12.522;2022-12-17T01:15:03;14.15;;;9.57;;
19225;SDS011;9747;48.536;12.522;2022-12-17T01:17:50;13.60;;;10.48;;
19225;SDS011;9747;48.536;12.522;2022-12-17T01:20:36;13.02;;;9.75;;
19225;SDS011;9747;48.536;12.522;2022-12-17T01:23:21;13.75;;;9.75;;
19225;SDS011;9747;48.536;12.522;2022-12-17T01:26:06;14.05;;;10.63;;
19225;SDS011;9747;48.536;12.522;2022-12-17T01:28:51;14.50;;;10.23;;
19225;SDS011;9747;48.536;12.522;2022-12-17T01:31:39;12.45;;;9.77;;
19225;SDS011;9747;48.536;12.522;2022-12-17T01:34:25;12.52;;;9.75;;
19225;SDS011;9747;48.536;12.522;2022-12-17T01:37:11;12.90;;;9.85;;
19225;SDS011;9747;48.536;12.522;2022-12-17T01:39:56;13.23;;;9.93;;
19225;SDS011;9747;48.536;12.522;2022-12-17T01:42:42;14.82;;;9.82;;
19225;SDS011;9747;48.536;12.522;2022-12-17T01:45:30;12.80;;;9.15;;
19225;SDS011;9747;48.536;12.522;2022-12-17T01:48:26;12.55;;;9.65;;
19225;SDS011;9747;48.536;12.522;2022-12-17T01:51:16;10.18;;;9.02;;
19225;SDS011;9747;48.536;12.522;2022-12-17T01:54:16;12.00;;;9.10;;
19225;SDS011;9747;48.536;12.522;2022-12-17T01:57:01;11.00;;;9.10;;
19225;SDS011;9747;48.536;12.522;2022-12-17T01:59:49;11.80;;;9.48;;
19225;SDS011;9747;48.536;12.522;2022-12-17T02:02:41;11.73;;;9.27;;
19225;SDS011;9747;48.536;12.522;2022-12-17T02:05:30;12.65;;;9.63;;
19225;SDS011;9747;48.536;12.522;2022-12-17T02:08:22;14.10;;;9.55;;
19225;SDS011;9747;48.536;12.522;2022-12-17T02:11:14;11.68;;;8.85;;
19225;SDS011;9747;48.536;12.522;2022-12-17T02:14:05;11.93;;;8.55;;
19225;SDS011;9747;48.536;12.522;2022-12-17T02:16:59;11.32;;;8.93;;
19225;SDS011;9747;48.536;12.522;2022-12-17T02:19:49;11.55;;;8.70;;
19225;SDS011;9747;48.536;12.522;2022-12-17T02:22:44;11.43;;;8.85;;
19225;SDS011;9747;48.536;12.522;2022-12-17T02:25:38;10.32;;;8.68;;
19225;SDS011;9747;48.536;12.522;2022-12-17T02:28:30;10.82;;;8.75;;
19225;SDS011;9747;48.536;12.522;2022-12-17T02:31:16;10.70;;;8.65;;
19225;SDS011;9747;48.536;12.522;2022-12-17T02:34:01;11.13;;;9.02;;
19225;SDS011;9747;48.536;12.522;2022-12-17T02:36:48;10.65;;;8.88;;
19225;SDS011;9747;48.536;12.522;2022-12-17T02:39:35;11.43;;;8.93;;
19225;SDS011;9747;48.536;12.522;2022-12-17T02:42:21;11.07;;;8.57;;
19225;SDS011;9747;48.536;12.522;2022-12-17T02:45:11;10.93;;;9.13;;
19225;SDS011;9747;48.536;12.522;2022-12-17T02:47:56;10.40;;;8.80;;
19225;SDS011;9747;48.536;12.522;2022-12-17T02:50:42;10.18;;;8.75;;
19225;SDS011;9747;48.536;12.522;2022-12-17T02:53:32;10.82;;;8.85;;
19225;SDS011;9747;48.536;12.522;2022-12-17T02:56:17;11.40;;;8.77;;
19225;SDS011;9747;48.536;12.522;2022-12-17T02:59:02;11.68;;;9.07;;
19225;SDS011;9747;48.536;12.522;2022-12-17T03:01:50;10.35;;;8.38;;
19225;SDS011;9747;48.536;12.522;2022-12-17T03:04:35;11.48;;;8.90;;
19225;SDS011;9747;48.536;12.522;2022-12-17T03:07:20;10.55;;;8.50;;
19225;SDS011;9747;48.536;12.522;2022-12-17T03:10:05;10.57;;;8.43;;
19225;SDS011;9747;48.536;12.522;2022-12-17T03:12:50;9.43;;;8.38;;
19225;SDS011;9747;48.536;12.522;2022-12-17T03:15:35;11.27;;;8.82;;
19225;SDS011;9747;48.536;12.522;2022-12-17T03:18:21;10.10;;;8.30;;
19225;SDS011;9747;48.536;12.522;2022-12-17T03:21:06;9.60;;;8.48;;
19225;SDS011;9747;48.536;12.522;2022-12-17T03:23:51;9.70;;;8.43;;
19225;SDS011;9747;48.536;12.522;2022-12-17T03:26:36;10.73;;;8.65;;
19225;SDS011;9747;48.536;12.522;2022-12-17T03:29:20;10.07;;;8.27;;
19225;SDS011;9747;48.536;12.522;2022-12-17T03:32:05;10.40;;;8.32;;
19225;SDS011;9747;48.536;12.522;2022-12-17T03:34:52;8.68;;;7.78;;
19225;SDS011;9747;48.536;12.522;2022-12-17T03:37:36;8.52;;;7.60;;
19225;SDS011;9747;48.536;12.522;2022-12-17T03:40:21;9.23;;;7.65;;
19225;SDS011;9747;48.536;12.522;2022-12-17T03:43:06;8.60;;;7.65;;
19225;SDS011;9747;48.536;12.522;2022-12-17T03:45:51;8.88;;;7.72;;
19225;SDS011;9747;48.536;12.522;2022-12-17T03:48:36;10.43;;;8.15;;
19225;SDS011;9747;48.536;12.522;2022-12-17T03:51:23;9.32;;;7.90;;
19225;SDS011;9747;48.536;12.522;2022-12-17T03:54:07;8.40;;;7.30;;
19225;SDS011;9747;48.536;12.522;2022-12-17T03:56:52;8.95;;;7.90;;
19225;SDS011;9747;48.536;12.522;2022-12-17T03:59:37;8.20;;;7.20;;
19225;SDS011;9747;48.536;12.522;2022-12-17T04:02:22;8.25;;;7.10;;
19225;SDS011;9747;48.536;12.522;2022-12-17T04:05:07;9.05;;;8.02;;
19225;SDS011;9747;48.536;12.522;2022-12-17T04:07:53;8.80;;;7.90;;
19225;SDS011;9747;48.536;12.522;2022-12-17T04:10:38;9.30;;;7.60;;
19225;SDS011;9747;48.536;12.522;2022-12-17T04:13:23;9.65;;;7.95;;
19225;SDS011;9747;48.536;12.522;2022-12-17T04:16:08;8.57;;;7.43;;
19225;SDS011;9747;48.536;12.522;2022-12-17T04:18:55;8.68;;;7.50;;
19225;SDS011;9747;48.536;12.522;2022-12-17T04:21:40;8.63;;;7.60;;
19225;SDS011;9747;48.536;12.522;2022-12-17T04:24:26;9.50;;;7.68;;
19225;SDS011;9747;48.536;12.522;2022-12-17T04:27:12;8.07;;;7.28;;
19225;SDS011;9747;48.536;12.522;2022-12-17T04:29:56;9.10;;;7.35;;
19225;SDS011;9747;48.536;12.522;2022-12-17T04:32:37;8.48;;;7.28;;
19225;SDS011;9747;48.536;12.522;2022-12-17T04:35:22;8.55;;;7.43;;
19225;SDS011;9747;48.536;12.522;2022-12-17T04:38:07;8.05;;;7.22;;
19225;SDS011;9747;48.536;12.522;2022-12-17T04:40:53;9.57;;;7.82;;
19225;SDS011;9747;48.536;12.522;2022-12-17T04:43:38;8.27;;;7.05;;
19225;SDS011;9747;48.536;12.522;2022-12-17T04:46:23;9.43;;;7.28;;
19225;SDS011;9747;48.536;12.522;2022-12-17T04:49:08;8.13;;;7.32;;
19225;SDS011;9747;48.536;12.522;2022-12-17T04:51:53;7.88;;;7.07;;
19225;SDS011;9747;48.536;12.522;2022-12-17T04:54:38;9.75;;;7.60;;
19225;SDS011;9747;48.536;12.522;2022-12-17T04:57:24;8.20;;;7.35;;
19225;SDS011;9747;48.536;12.522;2022-12-17T05:00:10;9.55;;;7.60;;
19225;SDS011;9747;48.536;12.522;2022-12-17T05:03:02;8.50;;;7.18;;
19225;SDS011;9747;48.536;12.522;2022-12-17T05:05:48;8.10;;;7.32;;
19225;SDS011;9747;48.536;12.522;2022-12-17T05:08:33;8.13;;;7.32;;
19225;SDS011;9747;48.536;12.522;2022-12-17T05:11:18;8.55;;;7.57;;
19225;SDS011;9747;48.536;12.522;2022-12-17T05:14:05;8.27;;;7.40;;
19225;SDS011;9747;48.536;12.522;2022-12-17T05:16:50;8.32;;;7.45;;
19225;SDS011;9747;48.536;12.522;2022-12-17T05:19:35;8.32;;;7.20;;
19225;SDS011;9747;48.536;12.522;2022-12-17T05:22:20;8.65;;;7.28;;
19225;SDS011;9747;48.536;12.522;2022-12-17T05:25:05;8.38;;;7.07;;
19225;SDS011;9747;48.536;12.522;2022-12-17T05:27:51;8.55;;;7.40;;
19225;SDS011;9747;48.536;12.522;2022-12-17T05:30:37;9.13;;;7.65;;
19225;SDS011;9747;48.536;12.522;2022-12-17T05:33:22;8.88;;;7.75;;
19225;SDS011;9747;48.536;12.522;2022-12-17T05:36:07;8.75;;;7.10;;
19225;SDS011;9747;48.536;12.522;2022-12-17T05:39:06;7.93;;;7.15;;
19225;SDS011;9747;48.536;12.522;2022-12-17T05:41:51;8.57;;;7.32;;
19225;SDS011;9747;48.536;12.522;2022-12-17T05:44:36;8.10;;;7.30;;
19225;SDS011;9747;48.536;12.522;2022-12-17T05:47:22;8.38;;;6.97;;
19225;SDS011;9747;48.536;12.522;2022-12-17T05:50:07;7.72;;;6.95;;
19225;SDS011;9747;48.536;12.522;2022-12-17T05:52:52;8.32;;;7.43;;
19225;SDS011;9747;48.536;12.522;2022-12-17T05:55:40;8.30;;;7.00;;
19225;SDS011;9747;48.536;12.522;2022-12-17T05:58:25;8.32;;;7.38;;
19225;SDS011;9747;48.536;12.522;2022-12-17T06:01:10;7.45;;;6.72;;
19225;SDS011;9747;48.536;12.522;2022-12-17T06:03:56;10.55;;;8.77;;
19225;SDS011;9747;48.536;12.522;2022-12-17T06:06:41;9.40;;;7.90;;
19225;SDS011;9747;48.536;12.522;2022-12-17T06:09:28;9.77;;;8.30;;
19225;SDS011;9747;48.536;12.522;2022-12-17T06:12:13;8.80;;;7.90;;
19225;SDS011;9747;48.536;12.522;2022-12-17T06:14:58;8.75;;;7.72;;
19225;SDS011;9747;48.536;12.522;2022-12-17T06:17:50;8.40;;;7.28;;
19225;SDS011;9747;48.536;12.522;2022-12-17T06:20:37;7.97;;;7.18;;
19225;SDS011;9747;48.536;12.522;2022-12-17T06:23:23;8.65;;;7.30;;
19225;SDS011;9747;48.536;12.522;2022-12-17T06:26:07;7.47;;;6.65;;
19225;SDS011;9747;48.536;12.522;2022-12-17T06:28:53;7.90;;;7.10;;
19225;SDS011;9747;48.536;12.522;2022-12-17T06:31:38;8.40;;;7.47;;
19225;SDS011;9747;48.536;12.522;2022-12-17T06:34:23;7.88;;;7.07;;
19225;SDS011;9747;48.536;12.522;2022-12-17T06:37:09;8.10;;;7.30;;
19225;SDS011;9747;48.536;12.522;2022-12-17T06:39:54;8.07;;;7.28;;
19225;SDS011;9747;48.536;12.522;2022-12-17T06:42:50;8.63;;;7.38;;
19225;SDS011;9747;48.536;12.522;2022-12-17T06:45:36;8.60;;;7.30;;
19225;SDS011;9747;48.536;12.522;2022-12-17T06:48:21;7.88;;;7.07;;
19225;SDS011;9747;48.536;12.522;2022-12-17T06:51:05;7.55;;;6.68;;
19225;SDS011;9747;48.536;12.522;2022-12-17T06:53:52;7.80;;;7.00;;
19225;SDS011;9747;48.536;12.522;2022-12-17T06:56:37;9.73;;;7.63;;
19225;SDS011;9747;48.536;12.522;2022-12-17T06:59:22;7.78;;;6.97;;
19225;SDS011;9747;48.536;12.522;2022-12-17T07:02:07;9.98;;;8.35;;
19225;SDS011;9747;48.536;12.522;2022-12-17T07:04:52;7.93;;;7.13;;
19225;SDS011;9747;48.536;12.522;2022-12-17T07:07:37;8.77;;;7.55;;
19225;SDS011;9747;48.536;12.522;2022-12-17T07:10:20;8.82;;;7.80;;
19225;SDS011;9747;48.536;12.522;2022-12-17T07:13:05;8.40;;;7.32;;
19225;SDS011;9747;48.536;12.522;2022-12-17T07:15:50;8.82;;;7.45;;
19225;SDS011;9747;48.536;12.522;2022-12-17T07:18:36;8.20;;;7.40;;
19225;SDS011;9747;48.536;12.522;2022-12-17T07:21:22;8.38;;;7.50;;
19225;SDS011;9747;48.536;12.522;2022-12-17T07:24:07;8.27;;;7.18;;
19225;SDS011;9747;48.536;12.522;2022-12-17T07:26:53;9.10;;;7.72;;
19225;SDS011;9747;48.536;12.522;2022-12-17T07:29:38;8.13;;;7.30;;
19225;SDS011;9747;48.536;12.522;2022-12-17T07:32:23;9.43;;;7.70;;
19225;SDS011;9747;48.536;12.522;2022-12-17T07:35:08;8.32;;;7.28;;
19225;SDS011;9747;48.536;12.522;2022-12-17T07:37:57;8.35;;;7.22;;
19225;SDS011;9747;48.536;12.522;2022-12-17T07:40:42;8.60;;;7.70;;
19225;SDS011;9747;48.536;12.522;2022-12-17T07:43:29;8.88;;;7.63;;
19225;SDS011;9747;48.536;12.522;2022-12-17T07:46:14;8.13;;;7.03;;
19225;SDS011;9747;48.536;12.522;2022-12-17T07:48:59;8.82;;;7.35;;
19225;SDS011;9747;48.536;12.522;2022-12-17T07:51:44;9.02;;;7.47;;
19225;SDS011;9747;48.536;12.522;2022-12-17T07:54:29;8.65;;;7.50;;
19225;SDS011;9747;48.536;12.522;2022-12-17T07:57:13;9.77;;;7.93;;
19225;SDS011;9747;48.536;12.522;2022-12-17T08:00:00;8.32;;;7.38;;
19225;SDS011;9747;48.536;12.522;2022-12-17T08:02:45;9.38;;;7.90;;
19225;SDS011;9747;48.536;12.522;2022-12-17T08:05:29;9.77;;;7.68;;
19225;SDS011;9747;48.536;12.522;2022-12-17T08:08:14;10.38;;;7.50;;
19225;SDS011;9747;48.536;12.522;2022-12-17T08:11:00;8.68;;;7.78;;
19225;SDS011;9747;48.536;12.522;2022-12-17T08:13:45;9.15;;;7.50;;
19225;SDS011;9747;48.536;12.522;2022-12-17T08:16:31;8.70;;;7.53;;
19225;SDS011;9747;48.536;12.522;2022-12-17T08:19:16;9.63;;;8.15;;
19225;SDS011;9747;48.536;12.522;2022-12-17T08:22:01;7.95;;;7.15;;
19225;SDS011;9747;48.536;12.522;2022-12-17T08:24:46;8.85;;;7.88;;
19225;SDS011;9747;48.536;12.522;2022-12-17T08:27:31;8.27;;;7.30;;
19225;SDS011;9747;48.536;12.522;2022-12-17T08:30:15;8.93;;;7.93;;
19225;SDS011;9747;48.536;12.522;2022-12-17T08:33:02;9.15;;;7.30;;
19225;SDS011;9747;48.536;12.522;2022-12-17T08:36:02;8.23;;;7.13;;
19225;SDS011;9747;48.536;12.522;2022-12-17T08:38:47;8.95;;;7.30;;
19225;SDS011;9747;48.536;12.522;2022-12-17T08:41:32;8.57;;;7.68;;
19225;SDS011;9747;48.536;12.522;2022-12-17T08:44:17;11.35;;;8.15;;
19225;SDS011;9747;48.536;12.522;2022-12-17T08:47:02;9.15;;;7.55;;
19225;SDS011;9747;48.536;12.522;2022-12-17T08:49:49;8.68;;;7.65;;
19225;SDS011;9747;48.536;12.522;2022-12-17T08:52:34;9.55;;;7.60;;
19225;SDS011;9747;48.536;12.522;2022-12-17T08:55:19;9.13;;;8.00;;
19225;SDS011;9747;48.536;12.522;2022-12-17T08:58:04;10.07;;;7.70;;
19225;SDS011;9747;48.536;12.522;2022-12-17T09:00:48;10.40;;;8.00;;
19225;SDS011;9747;48.536;12.522;2022-12-17T09:03:33;9.38;;;8.02;;
19225;SDS011;9747;48.536;12.522;2022-12-17T09:06:20;10.57;;;8.30;;
19225;SDS011;9747;48.536;12.522;2022-12-17T09:09:05;9.70;;;8.18;;
19225;SDS011;9747;48.536;12.522;2022-12-17T09:11:50;9.32;;;7.78;;
19225;SDS011;9747;48.536;12.522;2022-12-17T09:14:35;8.52;;;7.60;;
19225;SDS011;9747;48.536;12.522;2022-12-17T09:17:20;9.48;;;7.88;;
19225;SDS011;9747;48.536;12.522;2022-12-17T09:20:05;8.90;;;7.20;;
19225;SDS011;9747;48.536;12.522;2022-12-17T09:22:53;8.50;;;7.55;;
19225;SDS011;9747;48.536;12.522;2022-12-17T09:25:37;9.93;;;7.18;;
19225;SDS011;9747;48.536;12.522;2022-12-17T09:28:22;8.43;;;7.55;;
19225;SDS011;9747;48.536;12.522;2022-12-17T09:31:07;8.85;;;6.97;;
19225;SDS011;9747;48.536;12.522;2022-12-17T09:33:52;9.63;;;7.90;;
19225;SDS011;9747;48.536;12.522;2022-12-17T09:36:37;7.68;;;6.88;;
19225;SDS011;9747;48.536;12.522;2022-12-17T09:39:24;9.15;;;7.50;;
19225;SDS011;9747;48.536;12.522;2022-12-17T09:42:12;7.40;;;6.65;;
19225;SDS011;9747;48.536;12.522;2022-12-17T09:45:05;8.68;;;6.95;;
19225;SDS011;9747;48.536;12.522;2022-12-17T09:47:57;8.45;;;6.88;;
19225;SDS011;9747;48.536;12.522;2022-12-17T09:50:48;9.20;;;7.20;;
19225;SDS011;9747;48.536;12.522;2022-12-17T09:53:34;8.25;;;7.25;;
19225;SDS011;9747;48.536;12.522;2022-12-17T09:59:14;8.35;;;7.50;;
19225;SDS011;9747;48.536;12.522;2022-12-17T10:02:07;8.05;;;7.25;;
19225;SDS011;9747;48.536;12.522;2022-12-17T10:04:57;8.10;;;7.20;;
19225;SDS011;9747;48.536;12.522;2022-12-17T10:07:42;10.18;;;7.82;;
19225;SDS011;9747;48.536;12.522;2022-12-17T10:10:30;9.25;;;7.88;;
19225;SDS011;9747;48.536;12.522;2022-12-17T10:13:18;8.65;;;7.40;;
19225;SDS011;9747;48.536;12.522;2022-12-17T10:16:19;8.02;;;7.22;;
19225;SDS011;9747;48.536;12.522;2022-12-17T10:19:09;8.70;;;7.65;;
19225;SDS011;9747;48.536;12.522;2022-12-17T10:22:05;8.35;;;7.32;;
19225;SDS011;9747;48.536;12.522;2022-12-17T10:24:52;8.75;;;7.53;;
19225;SDS011;9747;48.536;12.522;2022-12-17T10:27:37;8.07;;;7.28;;
19225;SDS011;9747;48.536;12.522;2022-12-17T10:30:23;8.38;;;7.47;;
19225;SDS011;9747;48.536;12.522;2022-12-17T10:33:10;7.60;;;6.75;;
19225;SDS011;9747;48.536;12.522;2022-12-17T10:36:02;8.65;;;7.57;;
19225;SDS011;9747;48.536;12.522;2022-12-17T10:38:52;10.68;;;7.88;;
19225;SDS011;9747;48.536;12.522;2022-12-17T10:41:39;8.15;;;7.32;;
19225;SDS011;9747;48.536;12.522;2022-12-17T10:44:26;11.05;;;8.20;;
19225;SDS011;9747;48.536;12.522;2022-12-17T10:47:15;9.35;;;7.57;;
19225;SDS011;9747;48.536;12.522;2022-12-17T10:50:02;9.70;;;7.30;;
19225;SDS011;9747;48.536;12.522;2022-12-17T10:52:51;8.48;;;7.18;;
19225;SDS011;9747;48.536;12.522;2022-12-17T10:55:36;8.48;;;7.35;;
19225;SDS011;9747;48.536;12.522;2022-12-17T10:58:45;7.35;;;6.35;;
19225;SDS011;9747;48.536;12.522;2022-12-17T11:01:32;8.43;;;7.50;;
19225;SDS011;9747;48.536;12.522;2022-12-17T11:04:23;8.50;;;6.63;;
19225;SDS011;9747;48.536;12.522;2022-12-17T11:07:11;10.15;;;7.63;;
19225;SDS011;9747;48.536;12.522;2022-12-17T11:09:59;9.20;;;7.10;;
19225;SDS011;9747;48.536;12.522;2022-12-17T11:12:45;9.45;;;7.78;;
19225;SDS011;9747;48.536;12.522;2022-12-17T11:15:35;11.35;;;7.50;;
19225;SDS011;9747;48.536;12.522;2022-12-17T11:18:23;9.15;;;7.53;;
19225;SDS011;9747;48.536;12.522;2022-12-17T11:21:16;8.98;;;7.07;;
19225;SDS011;9747;48.536;12.522;2022-12-17T11:24:06;10.85;;;7.78;;
19225;SDS011;9747;48.536;12.522;2022-12-17T11:26:55;14.30;;;8.25;;
19225;SDS011;9747;48.536;12.522;2022-12-17T11:29:40;8.77;;;7.88;;
19225;SDS011;9747;48.536;12.522;2022-12-17T11:32:29;10.00;;;7.50;;
19225;SDS011;9747;48.536;12.522;2022-12-17T11:35:24;10.38;;;7.90;;
19225;SDS011;9747;48.536;12.522;2022-12-17T11:38:18;10.43;;;8.25;;
19225;SDS011;9747;48.536;12.522;2022-12-17T11:41:12;11.55;;;7.90;;
19225;SDS011;9747;48.536;12.522;2022-12-17T11:44:03;10.30;;;8.18;;
19225;SDS011;9747;48.536;12.522;2022-12-17T11:46:55;11.30;;;7.53;;
19225;SDS011;9747;48.536;12.522;2022-12-17T11:49:55;8.63;;;7.20;;
19225;SDS011;9747;48.536;12.522;2022-12-17T11:52:47;11.65;;;8.05;;
19225;SDS011;9747;48.536;12.522;2022-12-17T11:55:39;9.10;;;7.20;;
19225;SDS011;9747;48.536;12.522;2022-12-17T11:58:30;9.15;;;7.20;;
19225;SDS011;9747;48.536;12.522;2022-12-17T12:01:21;10.63;;;7.90;;
19225;SDS011;9747;48.536;12.522;2022-12-17T12:04:16;10.25;;;7.82;;
19225;SDS011;9747;48.536;12.522;2022-12-17T12:07:18;9.32;;;7.25;;
19225;SDS011;9747;48.536;12.522;2022-12-17T12:10:26;9.52;;;7.65;;
19225;SDS011;9747;48.536;12.522;2022-12-17T12:13:19;10.75;;;7.78;;
19225;SDS011;9747;48.536;12.522;2022-12-17T12:16:10;9.48;;;7.38;;
19225;SDS011;9747;48.536;12.522;2022-12-17T12:18:59;9.63;;;8.00;;
19225;SDS011;9747;48.536;12.522;2022-12-17T12:21:56;9.93;;;8.20;;
19225;SDS011;9747;48.536;12.522;2022-12-17T12:24:57;10.23;;;7.75;;
19225;SDS011;9747;48.536;12.522;2022-12-17T12:28:10;8.43;;;6.88;;
19225;SDS011;9747;48.536;12.522;2022-12-17T12:31:08;8.88;;;7.75;;
19225;SDS011;9747;48.536;12.522;2022-12-17T12:34:03;9.60;;;8.05;;
19225;SDS011;9747;48.536;12.522;2022-12-17T12:36:58;8.82;;;7.53;;
19225;SDS011;9747;48.536;12.522;2022-12-17T12:39:47;8.73;;;7.70;;
19225;SDS011;9747;48.536;12.522;2022-12-17T12:42:37;9.40;;;7.80;;
19225;SDS011;9747;48.536;12.522;2022-12-17T12:45:32;8.40;;;7.50;;
19225;SDS011;9747;48.536;12.522;2022-12-17T12:48:27;8.65;;;7.60;;
19225;SDS011;9747;48.536;12.522;2022-12-17T12:51:21;9.95;;;8.57;;
19225;SDS011;9747;48.536;12.522;2022-12-17T12:54:22;11.43;;;8.45;;
19225;SDS011;9747;48.536;12.522;2022-12-17T12:57:23;10.43;;;8.68;;
19225;SDS011;9747;48.536;12.522;2022-12-17T13:00:20;11.95;;;9.02;;
19225;SDS011;9747;48.536;12.522;2022-12-17T13:03:12;10.32;;;7.80;;
19225;SDS011;9747;48.536;12.522;2022-12-17T13:06:06;9.15;;;8.02;;
19225;SDS011;9747;48.536;12.522;2022-12-17T13:08:34;9.20;;;7.82;;
19225;SDS011;9747;48.536;12.522;2022-12-17T13:11:08;9.45;;;7.35;;
19225;SDS011;9747;48.536;12.522;2022-12-17T13:13:51;9.15;;;8.02;;
19225;SDS011;9747;48.536;12.522;2022-12-17T13:16:24;9.13;;;7.82;;
19225;SDS011;9747;48.536;12.522;2022-12-17T13:19:16;9.70;;;8.10;;
19225;SDS011;9747;48.536;12.522;2022-12-17T13:21:56;9.23;;;7.72;;
19225;SDS011;9747;48.536;12.522;2022-12-17T13:24:34;8.60;;;7.70;;
19225;SDS011;9747;48.536;12.522;2022-12-17T13:27:02;9.23;;;7.82;;
19225;SDS011;9747;48.536;12.522;2022-12-17T13:29:32;9.23;;;7.85;;
19225;SDS011;9747;48.536;12.522;2022-12-17T13:32:14;9.15;;;7.85;;
19225;SDS011;9747;48.536;12.522;2022-12-17T13:34:50;8.60;;;7.47;;
19225;SDS011;9747;48.536;12.522;2022-12-17T13:37:28;10.60;;;7.75;;
19225;SDS011;9747;48.536;12.522;2022-12-17T13:40:03;9.27;;;8.02;;
19225;SDS011;9747;48.536;12.522;2022-12-17T13:42:43;10.55;;;8.27;;
19225;SDS011;9747;48.536;12.522;2022-12-17T13:45:12;11.95;;;8.55;;
19225;SDS011;9747;48.536;12.522;2022-12-17T13:47:40;16.27;;;10.63;;
19225;SDS011;9747;48.536;12.522;2022-12-17T13:50:19;18.55;;;11.43;;
19225;SDS011;9747;48.536;12.522;2022-12-17T13:52:50;21.88;;;13.02;;
19225;SDS011;9747;48.536;12.522;2022-12-17T13:55:18;18.13;;;11.13;;
19225;SDS011;9747;48.536;12.522;2022-12-17T13:57:48;17.95;;;10.82;;
19225;SDS011;9747;48.536;12.522;2022-12-17T14:00:18;15.40;;;10.82;;
19225;SDS011;9747;48.536;12.522;2022-12-17T14:02:49;16.77;;;11.00;;
19225;SDS011;9747;48.536;12.522;2022-12-17T14:05:23;22.70;;;13.30;;
19225;SDS011;9747;48.536;12.522;2022-12-17T14:07:52;23.13;;;13.43;;
19225;SDS011;9747;48.536;12.522;2022-12-17T14:10:20;24.17;;;13.48;;
19225;SDS011;9747;48.536;12.522;2022-12-17T14:12:48;22.80;;;13.95;;
19225;SDS011;9747;48.536;12.522;2022-12-17T14:15:19;25.15;;;14.68;;
19225;SDS011;9747;48.536;12.522;2022-12-17T14:17:50;19.77;;;12.38;;
19225;SDS011;9747;48.536;12.522;2022-12-17T14:20:20;23.77;;;13.82;;
19225;SDS011;9747;48.536;12.522;2022-12-17T14:22:51;22.23;;;13.02;;
19225;SDS011;9747;48.536;12.522;2022-12-17T14:25:21;24.48;;;13.85;;
19225;SDS011;9747;48.536;12.522;2022-12-17T14:27:54;20.15;;;12.35;;
19225;SDS011;9747;48.536;12.522;2022-12-17T14:30:29;21.40;;;13.45;;
19225;SDS011;9747;48.536;12.522;2022-12-17T14:33:01;22.90;;;12.73;;
19225;SDS011;9747;48.536;12.522;2022-12-17T14:35:33;22.50;;;13.52;;
19225;SDS011;9747;48.536;12.522;2022-12-17T14:38:01;22.42;;;13.95;;
19225;SDS011;9747;48.536;12.522;2022-12-17T14:40:29;21.55;;;13.27;;
19225;SDS011;9747;48.536;12.522;2022-12-17T14:42:57;20.65;;;13.07;;
19225;SDS011;9747;48.536;12.522;2022-12-17T14:45:26;22.08;;;13.32;;
19225;SDS011;9747;48.536;12.522;2022-12-17T14:47:54;20.38;;;13.13;;
19225;SDS011;9747;48.536;12.522;2022-12-17T14:50:25;21.98;;;12.50;;
19225;SDS011;9747;48.536;12.522;2022-12-17T14:53:00;20.92;;;13.27;;
19225;SDS011;9747;48.536;12.522;2022-12-17T14:55:31;22.08;;;13.82;;
19225;SDS011;9747;48.536;12.522;2022-12-17T14:58:13;19.58;;;12.90;;
19225;SDS011;9747;48.536;12.522;2022-12-17T15:00:46;18.50;;;12.27;;
19225;SDS011;9747;48.536;12.522;2022-12-17T15:03:25;17.90;;;11.98;;
19225;SDS011;9747;48.536;12.522;2022-12-17T15:05:55;19.17;;;12.07;;
19225;SDS011;9747;48.536;12.522;2022-12-17T15:08:26;18.63;;;11.98;;
19225;SDS011;9747;48.536;12.522;2022-12-17T15:11:00;39.05;;;24.35;;
19225;SDS011;9747;48.536;12.522;2022-12-17T15:13:27;27.58;;;17.10;;
19225;SDS011;9747;48.536;12.522;2022-12-17T15:15:55;25.33;;;15.93;;
19225;SDS011;9747;48.536;12.522;2022-12-17T15:18:23;21.60;;;14.75;;
19225;SDS011;9747;48.536;12.522;2022-12-17T15:20:50;20.13;;;13.63;;
19225;SDS011;9747;48.536;12.522;2022-12-17T15:23:19;22.13;;;12.98;;
19225;SDS011;9747;48.536;12.522;2022-12-17T15:25:50;20.25;;;13.43;;
19225;SDS011;9747;48.536;12.522;2022-12-17T15:28:19;18.90;;;12.85;;
19225;SDS011;9747;48.536;12.522;2022-12-17T15:30:50;19.35;;;13.82;;
19225;SDS011;9747;48.536;12.522;2022-12-17T15:33:18;18.48;;;13.32;;
19225;SDS011;9747;48.536;12.522;2022-12-17T15:35:45;19.65;;;13.68;;
19225;SDS011;9747;48.536;12.522;2022-12-17T15:38:12;17.45;;;13.27;;
19225;SDS011;9747;48.536;12.522;2022-12-17T15:40:40;17.73;;;13.05;;
19225;SDS011;9747;48.536;12.522;2022-12-17T15:43:09;19.52;;;14.40;;
19225;SDS011;9747;48.536;12.522;2022-12-17T15:45:36;17.67;;;13.23;;
19225;SDS011;9747;48.536;12.522;2022-12-17T15:48:06;18.83;;;13.15;;
19225;SDS011;9747;48.536;12.522;2022-12-17T15:50:34;16.42;;;13.07;;
19225;SDS011;9747;48.536;12.522;2022-12-17T15:53:01;16.40;;;12.60;;
19225;SDS011;9747;48.536;12.522;2022-12-17T15:55:29;17.13;;;12.30;;
19225;SDS011;9747;48.536;12.522;2022-12-17T15:57:57;17.55;;;12.85;;
19225;SDS011;9747;48.536;12.522;2022-12-17T16:00:26;16.48;;;12.50;;
19225;SDS011;9747;48.536;12.522;2022-12-17T16:02:53;17.17;;;12.45;;
19225;SDS011;9747;48.536;12.522;2022-12-17T16:05:21;15.68;;;11.85;;
19225;SDS011;9747;48.536;12.522;2022-12-17T16:07:48;17.67;;;11.82;;
19225;SDS011;9747;48.536;12.522;2022-12-17T16:10:16;25.17;;;21.10;;
19225;SDS011;9747;48.536;12.522;2022-12-17T16:12:44;20.67;;;15.02;;
19225;SDS011;9747;48.536;12.522;2022-12-17T16:15:12;18.77;;;14.88;;
19225;SDS011;9747;48.536;12.522;2022-12-17T16:17:41;17.73;;;13.35;;
19225;SDS011;9747;48.536;12.522;2022-12-17T16:20:09;19.00;;;13.95;;